sensor_id;sensor_type;location;lat;lon;timestamp;temperature;humidity
20998;DHT22;10657;51.276;6.390;2023-04-30T00:00:41;10.40;99.90
20998;DHT22;10657;51.276;6.390;2023-04-30T00:03:08;10.30;99.90
20998;DHT22;10657;51.276;6.390;2023-04-30T00:05:34;10.40;99.90
20998;DHT22;10657;51.276;6.390;2023-04-30T00:08:01;10.20;99.90
20998;DHT22;10657;51.276;6.390;2023-04-30T00:10:28;10.30;99.90
20998;DHT22;10657;51.276;6.390;2023-04-30T00:12:54;10.20;99.90
20998;DHT22;10657;51.276;6.390;2023-04-30T00:15:22;10.30;99.90
20998;DHT22;10657;51.276;6.390;2023-04-30T00:17:49;10.20;99.90
20998;DHT22;10657;51.276;6.390;2023-04-30T00:20:15;10.20;99.90
20998;DHT22;10657;51.276;6.390;2023-04-30T00:22:42;10.30;99.90
20998;DHT22;10657;51.276;6.390;2023-04-30T00:25:09;10.30;99.90
20998;DHT22;10657;51.276;6.390;2023-04-30T00:27:35;10.30;99.90
20998;DHT22;10657;51.276;6.390;2023-04-30T00:30:06;10.30;99.90
20998;DHT22;10657;51.276;6.390;2023-04-30T00:32:32;10.20;99.90
20998;DHT22;10657;51.276;6.390;2023-04-30T00:34:59;10.30;99.90
20998;DHT22;10657;51.276;6.390;2023-04-30T00:37:26;10.30;99.90
20998;DHT22;10657;51.276;6.390;2023-04-30T00:39:52;10.20;99.90
20998;DHT22;10657;51.276;6.390;2023-04-30T00:42:19;10.20;99.90
20998;DHT22;10657;51.276;6.390;2023-04-30T00:44:46;10.10;99.90
20998;DHT22;10657;51.276;6.390;2023-04-30T00:47:12;10.10;99.90
20998;DHT22;10657;51.276;6.390;2023-04-30T00:49:39;10.00;99.90
20998;DHT22;10657;51.276;6.390;2023-04-30T00:52:06;9.90;99.90
20998;DHT22;10657;51.276;6.390;2023-04-30T00:54:33;10.00;99.90
20998;DHT22;10657;51.276;6.390;2023-04-30T00:57:00;9.90;99.90
20998;DHT22;10657;51.276;6.390;2023-04-30T00:59:28;10.00;99.90
20998;DHT22;10657;51.276;6.390;2023-04-30T01:01:55;10.00;99.90
20998;DHT22;10657;51.276;6.390;2023-04-30T01:04:22;10.10;99.90
20998;DHT22;10657;51.276;6.390;2023-04-30T01:06:49;10.00;99.90
20998;DHT22;10657;51.276;6.390;2023-04-30T01:09:17;10.00;99.90
20998;DHT22;10657;51.276;6.390;2023-04-30T01:11:49;9.90;99.90
20998;DHT22;10657;51.276;6.390;2023-04-30T01:14:26;10.00;99.90
20998;DHT22;10657;51.276;6.390;2023-04-30T01:17:05;9.90;99.90
20998;DHT22;10657;51.276;6.390;2023-04-30T01:19:44;9.80;99.90
20998;DHT22;10657;51.276;6.390;2023-04-30T01:30:15;9.70;99.90
20998;DHT22;10657;51.276;6.390;2023-04-30T01:32:42;9.60;99.90
20998;DHT22;10657;51.276;6.390;2023-04-30T01:35:09;9.50;99.90
20998;DHT22;10657;51.276;6.390;2023-04-30T01:38:30;9.50;99.90
20998;DHT22;10657;51.276;6.390;2023-04-30T01:46:25;9.50;99.90
20998;DHT22;10657;51.276;6.390;2023-04-30T01:51:38;9.50;99.90
20998;DHT22;10657;51.276;6.390;2023-04-30T01:56:56;9.60;99.90
20998;DHT22;10657;51.276;6.390;2023-04-30T01:59:28;9.60;99.90
20998;DHT22;10657;51.276;6.390;2023-04-30T02:01:56;9.50;99.90
20998;DHT22;10657;51.276;6.390;2023-04-30T02:04:23;9.50;99.90
20998;DHT22;10657;51.276;6.390;2023-04-30T02:06:49;9.50;99.90
20998;DHT22;10657;51.276;6.390;2023-04-30T02:09:16;9.40;99.90
20998;DHT22;10657;51.276;6.390;2023-04-30T02:11:42;9.40;99.90
20998;DHT22;10657;51.276;6.390;2023-04-30T02:14:09;9.40;99.90
20998;DHT22;10657;51.276;6.390;2023-04-30T02:16:36;9.40;99.90
20998;DHT22;10657;51.276;6.390;2023-04-30T02:19:03;9.30;99.90
20998;DHT22;10657;51.276;6.390;2023-04-30T02:21:29;9.20;99.90
20998;DHT22;10657;51.276;6.390;2023-04-30T02:23:57;9.20;99.90
20998;DHT22;10657;51.276;6.390;2023-04-30T02:26:23;9.10;99.90
20998;DHT22;10657;51.276;6.390;2023-04-30T02:28:51;9.20;99.90
20998;DHT22;10657;51.276;6.390;2023-04-30T02:31:18;9.10;99.90
20998;DHT22;10657;51.276;6.390;2023-04-30T02:33:45;9.10;99.90
20998;DHT22;10657;51.276;6.390;2023-04-30T02:36:11;9.00;99.90
20998;DHT22;10657;51.276;6.390;2023-04-30T02:38:38;8.90;99.90
20998;DHT22;10657;51.276;6.390;2023-04-30T02:41:04;8.90;99.90
20998;DHT22;10657;51.276;6.390;2023-04-30T02:43:31;9.00;99.90
20998;DHT22;10657;51.276;6.390;2023-04-30T02:45:58;9.00;99.90
20998;DHT22;10657;51.276;6.390;2023-04-30T02:48:24;9.10;99.90
20998;DHT22;10657;51.276;6.390;2023-04-30T02:50:51;9.00;99.90
20998;DHT22;10657;51.276;6.390;2023-04-30T02:53:18;9.10;99.90
20998;DHT22;10657;51.276;6.390;2023-04-30T02:55:44;9.00;99.90
20998;DHT22;10657;51.276;6.390;2023-04-30T02:58:11;8.90;99.90
20998;DHT22;10657;51.276;6.390;2023-04-30T03:00:38;9.00;99.90
20998;DHT22;10657;51.276;6.390;2023-04-30T03:03:05;8.90;99.90
20998;DHT22;10657;51.276;6.390;2023-04-30T03:05:32;8.90;99.90
20998;DHT22;10657;51.276;6.390;2023-04-30T03:07:59;8.90;99.90
20998;DHT22;10657;51.276;6.390;2023-04-30T03:10:25;8.90;99.90
20998;DHT22;10657;51.276;6.390;2023-04-30T03:12:52;8.80;99.90
20998;DHT22;10657;51.276;6.390;2023-04-30T03:15:19;8.80;99.90
20998;DHT22;10657;51.276;6.390;2023-04-30T03:17:46;8.80;99.90
20998;DHT22;10657;51.276;6.390;2023-04-30T03:20:13;8.80;99.90
20998;DHT22;10657;51.276;6.390;2023-04-30T03:22:39;8.60;99.90
20998;DHT22;10657;51.276;6.390;2023-04-30T03:25:07;8.70;99.90
20998;DHT22;10657;51.276;6.390;2023-04-30T03:27:34;8.70;99.90
20998;DHT22;10657;51.276;6.390;2023-04-30T03:30:01;8.70;99.90
20998;DHT22;10657;51.276;6.390;2023-04-30T03:32:27;8.70;99.90
20998;DHT22;10657;51.276;6.390;2023-04-30T03:34:54;8.60;99.90
20998;DHT22;10657;51.276;6.390;2023-04-30T03:37:21;8.50;99.90
20998;DHT22;10657;51.276;6.390;2023-04-30T03:39:47;8.50;99.90
20998;DHT22;10657;51.276;6.390;2023-04-30T03:42:14;8.50;99.90
20998;DHT22;10657;51.276;6.390;2023-04-30T03:44:41;8.60;99.90
20998;DHT22;10657;51.276;6.390;2023-04-30T03:47:08;8.60;99.90
20998;DHT22;10657;51.276;6.390;2023-04-30T03:49:34;8.50;99.90
20998;DHT22;10657;51.276;6.390;2023-04-30T03:52:01;8.40;99.90
20998;DHT22;10657;51.276;6.390;2023-04-30T03:54:28;8.50;99.90
20998;DHT22;10657;51.276;6.390;2023-04-30T03:56:55;8.40;99.90
20998;DHT22;10657;51.276;6.390;2023-04-30T03:59:22;8.40;99.90
20998;DHT22;10657;51.276;6.390;2023-04-30T04:01:49;8.40;99.90
20998;DHT22;10657;51.276;6.390;2023-04-30T04:04:16;8.30;99.90
20998;DHT22;10657;51.276;6.390;2023-04-30T04:06:43;8.10;99.90
20998;DHT22;10657;51.276;6.390;2023-04-30T04:09:10;8.10;99.90
20998;DHT22;10657;51.276;6.390;2023-04-30T04:11:36;8.30;99.90
20998;DHT22;10657;51.276;6.390;2023-04-30T04:14:03;8.30;99.90
20998;DHT22;10657;51.276;6.390;2023-04-30T04:16:30;8.30;99.90
20998;DHT22;10657;51.276;6.390;2023-04-30T04:18:56;8.40;99.90
20998;DHT22;10657;51.276;6.390;2023-04-30T04:21:23;8.30;99.90
20998;DHT22;10657;51.276;6.390;2023-04-30T04:23:50;8.20;99.90
20998;DHT22;10657;51.276;6.390;2023-04-30T04:26:16;8.00;99.90
20998;DHT22;10657;51.276;6.390;2023-04-30T04:28:45;8.10;99.90
20998;DHT22;10657;51.276;6.390;2023-04-30T04:31:13;8.10;99.90
20998;DHT22;10657;51.276;6.390;2023-04-30T04:33:39;8.10;99.90
20998;DHT22;10657;51.276;6.390;2023-04-30T04:36:06;8.20;99.90
20998;DHT22;10657;51.276;6.390;2023-04-30T04:38:33;8.20;99.90
20998;DHT22;10657;51.276;6.390;2023-04-30T04:40:59;8.10;99.90
20998;DHT22;10657;51.276;6.390;2023-04-30T04:43:26;8.20;99.90
20998;DHT22;10657;51.276;6.390;2023-04-30T04:45:53;8.20;99.90
20998;DHT22;10657;51.276;6.390;2023-04-30T04:48:20;8.30;99.90
20998;DHT22;10657;51.276;6.390;2023-04-30T04:50:46;8.30;99.90
20998;DHT22;10657;51.276;6.390;2023-04-30T04:53:13;8.30;99.90
20998;DHT22;10657;51.276;6.390;2023-04-30T04:55:40;8.30;99.90
20998;DHT22;10657;51.276;6.390;2023-04-30T04:58:06;8.40;99.90
20998;DHT22;10657;51.276;6.390;2023-04-30T05:00:33;8.30;99.90
20998;DHT22;10657;51.276;6.390;2023-04-30T05:02:59;8.40;99.90
20998;DHT22;10657;51.276;6.390;2023-04-30T05:05:26;8.20;99.90
20998;DHT22;10657;51.276;6.390;2023-04-30T05:07:53;8.30;99.90
20998;DHT22;10657;51.276;6.390;2023-04-30T05:10:20;8.30;99.90
20998;DHT22;10657;51.276;6.390;2023-04-30T05:12:47;8.30;99.90
20998;DHT22;10657;51.276;6.390;2023-04-30T05:15:13;8.30;99.90
20998;DHT22;10657;51.276;6.390;2023-04-30T05:17:40;8.40;99.90
20998;DHT22;10657;51.276;6.390;2023-04-30T05:20:07;8.50;99.90
20998;DHT22;10657;51.276;6.390;2023-04-30T05:22:34;8.40;99.90
20998;DHT22;10657;51.276;6.390;2023-04-30T05:25:01;8.50;99.90
20998;DHT22;10657;51.276;6.390;2023-04-30T05:27:28;8.60;99.90
20998;DHT22;10657;51.276;6.390;2023-04-30T05:29:54;8.60;99.90
20998;DHT22;10657;51.276;6.390;2023-04-30T05:32:22;8.60;99.90
20998;DHT22;10657;51.276;6.390;2023-04-30T05:34:49;8.60;99.90
20998;DHT22;10657;51.276;6.390;2023-04-30T05:37:15;8.70;99.90
20998;DHT22;10657;51.276;6.390;2023-04-30T05:39:45;8.60;99.90
20998;DHT22;10657;51.276;6.390;2023-04-30T05:42:11;8.70;99.90
20998;DHT22;10657;51.276;6.390;2023-04-30T05:44:39;8.60;99.90
20998;DHT22;10657;51.276;6.390;2023-04-30T05:47:06;8.60;99.90
20998;DHT22;10657;51.276;6.390;2023-04-30T05:49:33;8.70;99.90
20998;DHT22;10657;51.276;6.390;2023-04-30T05:52:01;8.70;99.90
20998;DHT22;10657;51.276;6.390;2023-04-30T05:54:29;8.70;99.90
20998;DHT22;10657;51.276;6.390;2023-04-30T05:56:56;8.80;99.90
20998;DHT22;10657;51.276;6.390;2023-04-30T05:59:23;9.10;99.90
20998;DHT22;10657;51.276;6.390;2023-04-30T06:01:50;9.00;99.90
20998;DHT22;10657;51.276;6.390;2023-04-30T06:04:17;9.00;99.90
20998;DHT22;10657;51.276;6.390;2023-04-30T06:06:43;9.00;99.90
20998;DHT22;10657;51.276;6.390;2023-04-30T06:09:10;9.20;99.90
20998;DHT22;10657;51.276;6.390;2023-04-30T06:11:37;9.50;99.90
20998;DHT22;10657;51.276;6.390;2023-04-30T06:14:06;9.40;99.90
20998;DHT22;10657;51.276;6.390;2023-04-30T06:16:33;9.40;99.90
20998;DHT22;10657;51.276;6.390;2023-04-30T06:18:59;9.60;99.90
20998;DHT22;10657;51.276;6.390;2023-04-30T06:21:26;9.80;99.90
20998;DHT22;10657;51.276;6.390;2023-04-30T06:23:53;9.80;99.90
20998;DHT22;10657;51.276;6.390;2023-04-30T06:26:19;9.80;99.90
20998;DHT22;10657;51.276;6.390;2023-04-30T06:28:46;9.90;99.90
20998;DHT22;10657;51.276;6.390;2023-04-30T06:31:13;10.00;99.90
20998;DHT22;10657;51.276;6.390;2023-04-30T06:33:39;10.10;99.90
20998;DHT22;10657;51.276;6.390;2023-04-30T06:36:06;10.10;99.90
20998;DHT22;10657;51.276;6.390;2023-04-30T06:38:33;10.00;99.90
20998;DHT22;10657;51.276;6.390;2023-04-30T06:40:59;10.20;99.90
20998;DHT22;10657;51.276;6.390;2023-04-30T06:43:26;10.20;99.90
20998;DHT22;10657;51.276;6.390;2023-04-30T06:45:52;10.20;99.90
20998;DHT22;10657;51.276;6.390;2023-04-30T06:48:19;10.10;99.90
20998;DHT22;10657;51.276;6.390;2023-04-30T06:50:46;10.30;99.90
20998;DHT22;10657;51.276;6.390;2023-04-30T06:53:13;10.30;99.90
20998;DHT22;10657;51.276;6.390;2023-04-30T06:55:41;10.50;99.90
20998;DHT22;10657;51.276;6.390;2023-04-30T06:58:08;10.60;99.90
20998;DHT22;10657;51.276;6.390;2023-04-30T07:00:35;10.80;99.90
20998;DHT22;10657;51.276;6.390;2023-04-30T07:03:01;11.00;99.90
20998;DHT22;10657;51.276;6.390;2023-04-30T07:05:30;11.00;99.90
20998;DHT22;10657;51.276;6.390;2023-04-30T07:07:57;11.20;99.90
20998;DHT22;10657;51.276;6.390;2023-04-30T07:10:24;11.10;99.90
20998;DHT22;10657;51.276;6.390;2023-04-30T07:12:51;11.10;99.90
20998;DHT22;10657;51.276;6.390;2023-04-30T07:15:18;11.30;99.90
20998;DHT22;10657;51.276;6.390;2023-04-30T07:17:45;11.30;99.90
20998;DHT22;10657;51.276;6.390;2023-04-30T07:20:12;11.40;99.90
20998;DHT22;10657;51.276;6.390;2023-04-30T07:22:42;11.40;99.90
20998;DHT22;10657;51.276;6.390;2023-04-30T07:25:12;11.50;99.90
20998;DHT22;10657;51.276;6.390;2023-04-30T07:27:39;11.50;99.90
20998;DHT22;10657;51.276;6.390;2023-04-30T07:30:07;11.50;99.90
20998;DHT22;10657;51.276;6.390;2023-04-30T07:32:36;11.60;99.90
20998;DHT22;10657;51.276;6.390;2023-04-30T07:35:03;11.40;99.90
20998;DHT22;10657;51.276;6.390;2023-04-30T07:37:30;11.70;99.90
20998;DHT22;10657;51.276;6.390;2023-04-30T07:40:00;11.70;99.90
20998;DHT22;10657;51.276;6.390;2023-04-30T07:42:27;11.90;99.90
20998;DHT22;10657;51.276;6.390;2023-04-30T07:44:53;11.90;99.90
20998;DHT22;10657;51.276;6.390;2023-04-30T07:47:20;11.60;99.90
20998;DHT22;10657;51.276;6.390;2023-04-30T07:49:48;11.60;99.90
20998;DHT22;10657;51.276;6.390;2023-04-30T07:52:15;11.70;99.90
20998;DHT22;10657;51.276;6.390;2023-04-30T07:54:41;11.80;99.90
20998;DHT22;10657;51.276;6.390;2023-04-30T07:57:08;12.00;99.90
20998;DHT22;10657;51.276;6.390;2023-04-30T07:59:35;11.90;99.90
20998;DHT22;10657;51.276;6.390;2023-04-30T08:02:01;11.90;99.90
20998;DHT22;10657;51.276;6.390;2023-04-30T08:04:29;12.00;99.90
20998;DHT22;10657;51.276;6.390;2023-04-30T08:06:56;12.00;99.90
20998;DHT22;10657;51.276;6.390;2023-04-30T08:09:22;12.10;99.90
20998;DHT22;10657;51.276;6.390;2023-04-30T08:11:49;12.10;99.90
20998;DHT22;10657;51.276;6.390;2023-04-30T08:14:16;11.90;99.90
20998;DHT22;10657;51.276;6.390;2023-04-30T08:16:42;12.10;99.90
20998;DHT22;10657;51.276;6.390;2023-04-30T08:19:09;12.10;99.90
20998;DHT22;10657;51.276;6.390;2023-04-30T08:21:36;12.20;99.90
20998;DHT22;10657;51.276;6.390;2023-04-30T08:24:03;12.30;99.90
20998;DHT22;10657;51.276;6.390;2023-04-30T08:26:30;12.30;99.90
20998;DHT22;10657;51.276;6.390;2023-04-30T08:28:57;12.40;99.90
20998;DHT22;10657;51.276;6.390;2023-04-30T08:31:23;12.30;99.90
20998;DHT22;10657;51.276;6.390;2023-04-30T08:33:50;12.30;99.90
20998;DHT22;10657;51.276;6.390;2023-04-30T08:36:17;12.40;99.90
20998;DHT22;10657;51.276;6.390;2023-04-30T08:38:43;12.40;99.90
20998;DHT22;10657;51.276;6.390;2023-04-30T08:41:13;12.50;99.90
20998;DHT22;10657;51.276;6.390;2023-04-30T08:43:40;12.60;99.90
20998;DHT22;10657;51.276;6.390;2023-04-30T08:46:07;12.80;99.90
20998;DHT22;10657;51.276;6.390;2023-04-30T08:48:34;13.10;99.90
20998;DHT22;10657;51.276;6.390;2023-04-30T08:51:01;13.20;99.90
20998;DHT22;10657;51.276;6.390;2023-04-30T08:53:35;13.10;99.90
20998;DHT22;10657;51.276;6.390;2023-04-30T08:56:04;13.10;99.90
20998;DHT22;10657;51.276;6.390;2023-04-30T08:58:30;13.10;99.90
20998;DHT22;10657;51.276;6.390;2023-04-30T09:00:58;13.30;99.90
20998;DHT22;10657;51.276;6.390;2023-04-30T09:03:25;13.40;99.90
20998;DHT22;10657;51.276;6.390;2023-04-30T09:05:52;13.20;99.90
20998;DHT22;10657;51.276;6.390;2023-04-30T09:08:39;13.20;99.90
20998;DHT22;10657;51.276;6.390;2023-04-30T09:11:24;13.40;99.90
20998;DHT22;10657;51.276;6.390;2023-04-30T09:13:52;13.40;99.90
20998;DHT22;10657;51.276;6.390;2023-04-30T09:16:20;13.40;99.90
20998;DHT22;10657;51.276;6.390;2023-04-30T09:18:47;13.60;99.90
20998;DHT22;10657;51.276;6.390;2023-04-30T09:21:14;13.50;99.90
20998;DHT22;10657;51.276;6.390;2023-04-30T09:23:57;13.70;99.90
20998;DHT22;10657;51.276;6.390;2023-04-30T09:26:35;14.10;99.90
20998;DHT22;10657;51.276;6.390;2023-04-30T09:29:03;14.00;99.90
20998;DHT22;10657;51.276;6.390;2023-04-30T09:31:34;14.10;99.90
20998;DHT22;10657;51.276;6.390;2023-04-30T09:34:02;14.10;99.90
20998;DHT22;10657;51.276;6.390;2023-04-30T09:36:29;14.00;99.90
20998;DHT22;10657;51.276;6.390;2023-04-30T09:39:10;14.10;99.90
20998;DHT22;10657;51.276;6.390;2023-04-30T09:41:41;14.30;99.90
20998;DHT22;10657;51.276;6.390;2023-04-30T09:44:28;14.30;99.90
20998;DHT22;10657;51.276;6.390;2023-04-30T09:46:56;14.30;99.90
20998;DHT22;10657;51.276;6.390;2023-04-30T09:49:24;14.40;99.90
20998;DHT22;10657;51.276;6.390;2023-04-30T09:51:58;14.30;99.90
20998;DHT22;10657;51.276;6.390;2023-04-30T09:54:28;14.50;99.90
20998;DHT22;10657;51.276;6.390;2023-04-30T09:56:57;14.70;99.90
20998;DHT22;10657;51.276;6.390;2023-04-30T09:59:32;14.70;99.90
20998;DHT22;10657;51.276;6.390;2023-04-30T10:02:02;14.60;99.90
20998;DHT22;10657;51.276;6.390;2023-04-30T10:04:37;14.70;99.90
20998;DHT22;10657;51.276;6.390;2023-04-30T10:09:43;14.70;99.90
20998;DHT22;10657;51.276;6.390;2023-04-30T10:12:21;14.90;99.90
20998;DHT22;10657;51.276;6.390;2023-04-30T10:14:56;15.00;99.90
20998;DHT22;10657;51.276;6.390;2023-04-30T10:17:26;15.00;99.90
20998;DHT22;10657;51.276;6.390;2023-04-30T10:19:57;15.10;99.90
20998;DHT22;10657;51.276;6.390;2023-04-30T10:22:28;15.10;99.90
20998;DHT22;10657;51.276;6.390;2023-04-30T10:24:55;15.10;99.90
20998;DHT22;10657;51.276;6.390;2023-04-30T10:27:22;15.20;99.90
20998;DHT22;10657;51.276;6.390;2023-04-30T10:29:49;15.20;99.90
20998;DHT22;10657;51.276;6.390;2023-04-30T10:32:16;15.10;99.90
20998;DHT22;10657;51.276;6.390;2023-04-30T10:34:52;15.10;99.90
20998;DHT22;10657;51.276;6.390;2023-04-30T10:37:33;15.40;99.90
20998;DHT22;10657;51.276;6.390;2023-04-30T10:40:02;15.30;99.90
20998;DHT22;10657;51.276;6.390;2023-04-30T10:42:31;15.20;99.90
20998;DHT22;10657;51.276;6.390;2023-04-30T10:45:01;15.20;99.90
20998;DHT22;10657;51.276;6.390;2023-04-30T10:47:29;15.40;99.90
20998;DHT22;10657;51.276;6.390;2023-04-30T10:50:03;15.40;99.90
20998;DHT22;10657;51.276;6.390;2023-04-30T10:52:30;15.50;99.90
20998;DHT22;10657;51.276;6.390;2023-04-30T10:54:57;15.50;99.90
20998;DHT22;10657;51.276;6.390;2023-04-30T10:57:28;15.60;99.90
20998;DHT22;10657;51.276;6.390;2023-04-30T11:02:39;15.80;99.90
20998;DHT22;10657;51.276;6.390;2023-04-30T11:05:07;15.80;99.90
20998;DHT22;10657;51.276;6.390;2023-04-30T11:07:34;15.80;99.90
20998;DHT22;10657;51.276;6.390;2023-04-30T11:10:01;15.90;99.90
20998;DHT22;10657;51.276;6.390;2023-04-30T11:12:29;16.00;99.90
20998;DHT22;10657;51.276;6.390;2023-04-30T11:15:14;16.00;99.90
20998;DHT22;10657;51.276;6.390;2023-04-30T11:17:43;16.00;99.90
20998;DHT22;10657;51.276;6.390;2023-04-30T11:20:18;16.10;99.90
20998;DHT22;10657;51.276;6.390;2023-04-30T11:22:45;16.30;99.90
20998;DHT22;10657;51.276;6.390;2023-04-30T11:25:13;16.50;99.90
20998;DHT22;10657;51.276;6.390;2023-04-30T11:27:44;16.40;99.90
20998;DHT22;10657;51.276;6.390;2023-04-30T11:30:13;16.50;99.90
20998;DHT22;10657;51.276;6.390;2023-04-30T11:32:44;16.40;99.90
20998;DHT22;10657;51.276;6.390;2023-04-30T11:35:17;16.60;99.90
20998;DHT22;10657;51.276;6.390;2023-04-30T11:37:44;16.60;99.90
20998;DHT22;10657;51.276;6.390;2023-04-30T11:40:13;16.60;99.90
20998;DHT22;10657;51.276;6.390;2023-04-30T11:42:41;16.70;99.90
20998;DHT22;10657;51.276;6.390;2023-04-30T11:45:14;16.90;99.90
20998;DHT22;10657;51.276;6.390;2023-04-30T11:47:51;17.00;99.90
20998;DHT22;10657;51.276;6.390;2023-04-30T11:50:19;17.20;99.90
20998;DHT22;10657;51.276;6.390;2023-04-30T11:52:53;17.10;99.90
20998;DHT22;10657;51.276;6.390;2023-04-30T11:55:22;17.00;99.90
20998;DHT22;10657;51.276;6.390;2023-04-30T11:57:51;17.00;99.90
20998;DHT22;10657;51.276;6.390;2023-04-30T12:00:29;17.20;99.90
20998;DHT22;10657;51.276;6.390;2023-04-30T12:02:59;17.20;99.90
20998;DHT22;10657;51.276;6.390;2023-04-30T12:05:27;17.10;99.90
20998;DHT22;10657;51.276;6.390;2023-04-30T12:07:59;17.10;99.90
20998;DHT22;10657;51.276;6.390;2023-04-30T12:10:26;17.40;99.90
20998;DHT22;10657;51.276;6.390;2023-04-30T12:12:53;17.80;99.90
20998;DHT22;10657;51.276;6.390;2023-04-30T12:15:22;17.90;99.90
20998;DHT22;10657;51.276;6.390;2023-04-30T12:17:53;18.00;99.90
20998;DHT22;10657;51.276;6.390;2023-04-30T12:20:22;17.90;99.90
20998;DHT22;10657;51.276;6.390;2023-04-30T12:22:49;17.90;99.90
20998;DHT22;10657;51.276;6.390;2023-04-30T12:25:18;18.00;99.90
20998;DHT22;10657;51.276;6.390;2023-04-30T12:27:49;18.20;99.90
20998;DHT22;10657;51.276;6.390;2023-04-30T12:30:21;18.10;99.90
20998;DHT22;10657;51.276;6.390;2023-04-30T12:32:50;18.30;99.90
20998;DHT22;10657;51.276;6.390;2023-04-30T12:35:20;18.40;99.90
20998;DHT22;10657;51.276;6.390;2023-04-30T12:37:48;18.70;99.90
20998;DHT22;10657;51.276;6.390;2023-04-30T12:40:18;18.70;99.90
20998;DHT22;10657;51.276;6.390;2023-04-30T12:42:45;19.00;99.90
20998;DHT22;10657;51.276;6.390;2023-04-30T12:45:52;18.90;99.90
20998;DHT22;10657;51.276;6.390;2023-04-30T12:48:22;18.60;99.90
20998;DHT22;10657;51.276;6.390;2023-04-30T12:51:00;18.60;99.90
20998;DHT22;10657;51.276;6.390;2023-04-30T12:53:27;19.00;99.90
20998;DHT22;10657;51.276;6.390;2023-04-30T12:56:13;19.40;99.90
20998;DHT22;10657;51.276;6.390;2023-04-30T12:58:45;19.20;99.90
20998;DHT22;10657;51.276;6.390;2023-04-30T13:01:18;19.30;99.90
20998;DHT22;10657;51.276;6.390;2023-04-30T13:03:44;19.60;99.90
20998;DHT22;10657;51.276;6.390;2023-04-30T13:06:11;19.30;99.90
20998;DHT22;10657;51.276;6.390;2023-04-30T13:08:38;18.90;99.90
20998;DHT22;10657;51.276;6.390;2023-04-30T13:11:23;19.10;99.90
20998;DHT22;10657;51.276;6.390;2023-04-30T13:13:51;19.60;99.90
20998;DHT22;10657;51.276;6.390;2023-04-30T13:16:18;19.70;99.90
20998;DHT22;10657;51.276;6.390;2023-04-30T13:18:44;19.30;99.90
20998;DHT22;10657;51.276;6.390;2023-04-30T13:21:12;18.90;99.90
20998;DHT22;10657;51.276;6.390;2023-04-30T13:23:39;19.10;99.90
20998;DHT22;10657;51.276;6.390;2023-04-30T13:26:18;18.80;99.90
20998;DHT22;10657;51.276;6.390;2023-04-30T13:28:46;18.80;99.90
20998;DHT22;10657;51.276;6.390;2023-04-30T13:31:13;19.30;99.90
20998;DHT22;10657;51.276;6.390;2023-04-30T13:33:39;19.10;99.90
20998;DHT22;10657;51.276;6.390;2023-04-30T13:36:07;18.90;99.90
20998;DHT22;10657;51.276;6.390;2023-04-30T13:38:33;19.30;99.90
20998;DHT22;10657;51.276;6.390;2023-04-30T13:41:00;19.30;99.90
20998;DHT22;10657;51.276;6.390;2023-04-30T13:43:26;19.50;99.90
20998;DHT22;10657;51.276;6.390;2023-04-30T13:45:53;19.70;99.90
20998;DHT22;10657;51.276;6.390;2023-04-30T13:48:20;19.90;99.90
20998;DHT22;10657;51.276;6.390;2023-04-30T13:50:47;20.10;99.90
20998;DHT22;10657;51.276;6.390;2023-04-30T13:53:13;20.00;99.90
20998;DHT22;10657;51.276;6.390;2023-04-30T13:55:40;19.60;99.90
20998;DHT22;10657;51.276;6.390;2023-04-30T13:58:07;19.50;99.90
20998;DHT22;10657;51.276;6.390;2023-04-30T14:00:33;19.30;99.90
20998;DHT22;10657;51.276;6.390;2023-04-30T14:03:00;19.60;99.90
20998;DHT22;10657;51.276;6.390;2023-04-30T14:05:27;20.30;99.90
20998;DHT22;10657;51.276;6.390;2023-04-30T14:07:53;20.80;99.90
20998;DHT22;10657;51.276;6.390;2023-04-30T14:10:20;21.00;99.90
20998;DHT22;10657;51.276;6.390;2023-04-30T14:12:47;20.90;99.90
20998;DHT22;10657;51.276;6.390;2023-04-30T14:15:14;20.90;99.90
20998;DHT22;10657;51.276;6.390;2023-04-30T14:17:41;20.50;99.90
20998;DHT22;10657;51.276;6.390;2023-04-30T14:20:08;20.30;99.90
20998;DHT22;10657;51.276;6.390;2023-04-30T14:22:34;20.30;99.90
20998;DHT22;10657;51.276;6.390;2023-04-30T14:25:04;20.90;99.90
20998;DHT22;10657;51.276;6.390;2023-04-30T14:27:31;21.20;99.90
20998;DHT22;10657;51.276;6.390;2023-04-30T14:29:58;21.30;99.90
20998;DHT22;10657;51.276;6.390;2023-04-30T14:32:25;21.50;99.90
20998;DHT22;10657;51.276;6.390;2023-04-30T14:34:53;21.50;99.90
20998;DHT22;10657;51.276;6.390;2023-04-30T14:37:19;21.40;99.90
20998;DHT22;10657;51.276;6.390;2023-04-30T14:39:46;21.80;99.90
20998;DHT22;10657;51.276;6.390;2023-04-30T14:42:13;21.90;99.90
20998;DHT22;10657;51.276;6.390;2023-04-30T14:44:39;22.00;99.90
20998;DHT22;10657;51.276;6.390;2023-04-30T14:47:06;22.10;99.90
20998;DHT22;10657;51.276;6.390;2023-04-30T14:49:33;21.70;99.90
20998;DHT22;10657;51.276;6.390;2023-04-30T14:51:59;21.10;99.90
20998;DHT22;10657;51.276;6.390;2023-04-30T14:54:27;20.70;99.90
20998;DHT22;10657;51.276;6.390;2023-04-30T14:56:53;20.50;99.90
20998;DHT22;10657;51.276;6.390;2023-04-30T14:59:20;20.90;99.90
20998;DHT22;10657;51.276;6.390;2023-04-30T15:01:47;21.50;99.90
20998;DHT22;10657;51.276;6.390;2023-04-30T15:04:13;21.80;99.90
20998;DHT22;10657;51.276;6.390;2023-04-30T15:06:40;21.80;99.90
20998;DHT22;10657;51.276;6.390;2023-04-30T15:09:07;21.70;99.90
20998;DHT22;10657;51.276;6.390;2023-04-30T15:11:34;21.60;99.90
20998;DHT22;10657;51.276;6.390;2023-04-30T15:14:00;21.70;99.90
20998;DHT22;10657;51.276;6.390;2023-04-30T15:16:27;21.70;99.90
20998;DHT22;10657;51.276;6.390;2023-04-30T15:18:55;21.70;99.90
20998;DHT22;10657;51.276;6.390;2023-04-30T15:21:22;21.30;99.90
20998;DHT22;10657;51.276;6.390;2023-04-30T15:23:48;21.40;99.90
20998;DHT22;10657;51.276;6.390;2023-04-30T15:26:15;21.80;99.90
20998;DHT22;10657;51.276;6.390;2023-04-30T15:28:42;22.20;99.90
20998;DHT22;10657;51.276;6.390;2023-04-30T15:31:09;22.90;99.90
20998;DHT22;10657;51.276;6.390;2023-04-30T15:33:37;22.50;99.90
20998;DHT22;10657;51.276;6.390;2023-04-30T15:36:09;22.30;99.90
20998;DHT22;10657;51.276;6.390;2023-04-30T15:38:35;21.60;99.90
20998;DHT22;10657;51.276;6.390;2023-04-30T15:41:02;21.50;99.90
20998;DHT22;10657;51.276;6.390;2023-04-30T15:43:29;21.30;99.90
20998;DHT22;10657;51.276;6.390;2023-04-30T15:45:57;21.80;99.90
20998;DHT22;10657;51.276;6.390;2023-04-30T15:48:24;22.10;99.90
20998;DHT22;10657;51.276;6.390;2023-04-30T15:50:51;22.00;99.90
20998;DHT22;10657;51.276;6.390;2023-04-30T15:53:17;21.70;99.90
20998;DHT22;10657;51.276;6.390;2023-04-30T15:55:44;21.90;99.90
20998;DHT22;10657;51.276;6.390;2023-04-30T15:58:12;21.80;99.90
20998;DHT22;10657;51.276;6.390;2023-04-30T16:00:38;21.40;99.90
20998;DHT22;10657;51.276;6.390;2023-04-30T16:03:05;21.20;99.90
20998;DHT22;10657;51.276;6.390;2023-04-30T16:05:32;21.10;99.90